Time;durP1;ratioP1;P1;durP2;ratioP2;P2;SDS_P1;SDS_P2;PMS_P1;PMS_P2;Temp;Humidity;BMP_temperature;BMP_pressure;BME280_temperature;BME280_humidity;BME280_pressure;Samples;Min_cycle;Max_cycle;Signal;HPM_P1;HPM_P2
2022/06/03 00:03:02;;;;;;;1.67;1.53;;;;;;;16.42;100.00;99300.72;5050305;28;20199;-79
2022/06/03 00:05:50;;;;;;;2.80;1.50;;;;;;;16.30;100.00;99298.09;5045446;28;20207;-78
2022/06/03 00:08:42;;;;;;;1.40;1.30;;;;;;;16.34;100.00;99290.69;5050018;28;20202;-78
2022/06/03 00:11:39;;;;;;;1.57;1.30;;;;;;;16.36;100.00;99291.38;5045110;28;20208;-79
2022/06/03 00:14:30;;;;;;;3.53;1.63;;;;;;;16.21;100.00;99295.34;5048946;28;20658;-78
2022/06/03 00:17:03;;;;;;;2.90;1.60;;;;;;;16.28;100.00;99291.19;5049943;28;20213;-78
2022/06/03 00:19:51;;;;;;;2.17;1.50;;;;;;;16.27;100.00;99293.00;5049645;28;20653;-78
2022/06/03 00:22:52;;;;;;;2.60;1.67;;;;;;;16.51;100.00;99297.25;5049649;28;20195;-78
2022/06/03 00:25:37;;;;;;;2.63;1.23;;;;;;;16.57;100.00;99302.06;5049887;28;20212;-78
2022/06/03 00:28:30;;;;;;;2.30;1.30;;;;;;;16.54;100.00;99302.31;5045559;28;20208;-78
2022/06/03 00:31:14;;;;;;;1.63;1.30;;;;;;;16.59;100.00;99310.78;5050806;28;20663;-79
2022/06/03 00:33:58;;;;;;;1.70;1.33;;;;;;;16.58;100.00;99307.25;5054283;28;20231;-78
2022/06/03 00:36:50;;;;;;;2.43;1.40;;;;;;;16.69;100.00;99313.53;5049607;28;20272;-79
2022/06/03 00:39:55;;;;;;;1.80;1.37;;;;;;;16.55;100.00;99309.38;5049584;28;20197;-78
2022/06/03 00:42:35;;;;;;;3.40;1.30;;;;;;;16.55;100.00;99310.22;5049180;28;20215;-79
2022/06/03 00:45:22;;;;;;;4.23;1.50;;;;;;;16.64;100.00;99300.56;5048331;28;20572;-79
2022/06/03 00:48:08;;;;;;;1.50;1.30;;;;;;;16.30;100.00;99305.25;5049444;28;20194;-79
2022/06/03 00:50:54;;;;;;;1.60;1.40;;;;;;;16.51;100.00;99299.94;5061338;27;20193;-78
2022/06/03 00:53:34;;;;;;;3.40;1.47;;;;;;;16.35;100.00;99299.53;5049222;28;20208;-78
2022/06/03 00:56:44;;;;;;;2.23;1.30;;;;;;;16.34;100.00;99300.53;5049438;28;20279;-79
2022/06/03 00:59:35;;;;;;;2.00;1.50;;;;;;;16.36;100.00;99298.56;5047535;28;20217;-79
2022/06/03 01:02:18;;;;;;;1.50;1.20;;;;;;;15.91;100.00;99296.97;5046662;28;20201;-78
2022/06/03 01:05:01;;;;;;;3.10;1.50;;;;;;;15.73;100.00;99291.38;5047829;28;20208;-78
2022/06/03 01:07:41;;;;;;;2.23;1.30;;;;;;;15.76;100.00;99292.94;5048600;28;20280;-79
2022/06/03 01:10:27;;;;;;;1.67;1.57;;;;;;;15.64;100.00;99283.28;5048769;28;20201;-79
2022/06/03 01:13:15;;;;;;;1.53;1.40;;;;;;;15.72;100.00;99283.44;5049166;28;20197;-78
2022/06/03 01:15:55;;;;;;;1.63;1.43;;;;;;;15.53;100.00;99283.25;5048992;28;20201;-78
2022/06/03 01:18:38;;;;;;;1.40;1.30;;;;;;;15.64;100.00;99269.91;5048897;28;20295;-78
2022/06/03 01:21:16;;;;;;;1.30;1.20;;;;;;;15.48;100.00;99274.78;5045465;28;20189;-78
2022/06/03 01:24:10;;;;;;;1.40;1.30;;;;;;;15.16;100.00;99275.59;5049272;28;20214;-78
2022/06/03 01:27:30;;;;;;;1.40;1.30;;;;;;;15.37;100.00;99268.50;5048573;28;20197;-79
2022/06/03 01:30:20;;;;;;;2.17;1.50;;;;;;;15.25;100.00;99273.97;5026254;28;20205;-78
2022/06/03 01:33:17;;;;;;;2.23;1.40;;;;;;;15.31;100.00;99270.81;5048842;28;20240;-77
2022/06/03 01:36:08;;;;;;;2.23;1.50;;;;;;;15.49;100.00;99274.66;5043510;28;20197;-78
2022/06/03 01:39:20;;;;;;;2.23;1.37;;;;;;;15.30;100.00;99280.66;5047342;28;20300;-80
2022/06/03 01:42:41;;;;;;;2.63;1.73;;;;;;;15.05;100.00;99276.44;5064674;28;20211;-77
2022/06/03 01:45:30;;;;;;;2.70;1.30;;;;;;;15.02;100.00;99274.03;5050949;28;20555;-77
2022/06/03 01:48:17;;;;;;;1.70;1.60;;;;;;;14.96;100.00;99271.88;5050212;28;20197;-80
2022/06/03 01:51:13;;;;;;;1.40;1.30;;;;;;;15.12;100.00;99280.31;5054767;28;20208;-79
2022/06/03 01:54:18;;;;;;;1.50;1.40;;;;;;;14.86;100.00;99279.78;5051751;28;20189;-79
2022/06/03 01:57:20;;;;;;;3.13;1.30;;;;;;;14.76;100.00;99275.25;5049763;28;20280;-79
2022/06/03 02:00:18;;;;;;;2.30;1.50;;;;;;;14.59;100.00;99282.78;5050635;28;20227;-80
2022/06/03 02:03:26;;;;;;;1.40;1.30;;;;;;;14.45;100.00;99283.00;5050167;27;20304;-78
2022/06/03 02:06:33;;;;;;;1.77;1.53;;;;;;;14.24;100.00;99282.81;5049046;28;20219;-78
2022/06/03 02:09:13;;;;;;;1.23;1.17;;;;;;;14.29;100.00;99286.00;5051970;28;20203;-78
2022/06/03 02:12:08;;;;;;;1.50;1.40;;;;;;;14.19;100.00;99279.69;5051933;28;20204;-78
2022/06/03 02:15:00;;;;;;;2.00;1.60;;;;;;;14.27;100.00;99265.75;5050011;28;20639;-78
2022/06/03 02:18:16;;;;;;;2.17;1.40;;;;;;;14.09;100.00;99268.03;5051810;28;20674;-78
2022/06/03 02:21:16;;;;;;;3.83;1.60;;;;;;;14.10;100.00;99261.75;5051228;28;20208;-78
2022/06/03 02:24:20;;;;;;;1.87;1.70;;;;;;;13.83;100.00;99264.69;5054578;28;20288;-78
2022/06/03 02:27:27;;;;;;;1.70;1.60;;;;;;;13.64;100.00;99269.69;5051033;28;20208;-79
2022/06/03 02:30:27;;;;;;;1.97;1.60;;;;;;;13.73;100.00;99266.34;5048821;28;20200;-78
2022/06/03 02:33:34;;;;;;;1.60;1.50;;;;;;;13.62;100.00;99266.31;5051333;28;20236;-78
2022/06/03 02:36:44;;;;;;;2.00;1.50;;;;;;;13.72;100.00;99262.00;5051667;28;20204;-78
2022/06/03 02:39:37;;;;;;;1.77;1.40;;;;;;;13.72;100.00;99257.53;5049713;28;20221;-79
2022/06/03 02:42:32;;;;;;;3.83;1.63;;;;;;;13.72;100.00;99260.19;5051672;28;20205;-77
2022/06/03 02:45:18;;;;;;;1.70;1.60;;;;;;;14.01;100.00;99260.63;5069342;28;20230;-78
2022/06/03 02:48:30;;;;;;;1.93;1.70;;;;;;;14.00;100.00;99266.94;5052674;27;20222;-78
2022/06/03 02:51:29;;;;;;;1.87;1.53;;;;;;;13.63;100.00;99266.19;5051398;28;20663;-78
2022/06/03 02:54:27;;;;;;;1.90;1.50;;;;;;;13.71;100.00;99261.16;5055179;27;20201;-78
2022/06/03 02:57:10;;;;;;;2.47;1.80;;;;;;;13.68;100.00;99263.16;5031695;28;20204;-78
2022/06/03 03:00:35;;;;;;;1.87;1.50;;;;;;;13.72;100.00;99270.84;5045956;28;20294;-78
2022/06/03 03:03:16;;;;;;;2.07;1.60;;;;;;;13.60;100.00;99262.88;5006953;28;20248;-78
2022/06/03 03:06:16;;;;;;;2.20;1.83;;;;;;;13.48;100.00;99267.31;5048320;28;20207;-78
2022/06/03 03:09:02;;;;;;;2.00;1.80;;;;;;;13.56;100.00;99267.59;5050722;28;20197;-78
2022/06/03 03:11:58;;;;;;;2.40;1.83;;;;;;;13.32;100.00;99264.97;5050922;28;20257;-78
2022/06/03 03:14:49;;;;;;;2.90;1.70;;;;;;;13.36;100.00;99274.41;5049699;28;20272;-78
2022/06/03 03:17:39;;;;;;;1.87;1.70;;;;;;;13.34;100.00;99264.84;5057185;27;20640;-78
2022/06/03 03:20:36;;;;;;;2.00;1.80;;;;;;;13.53;100.00;99269.66;5051000;28;20303;-78
2022/06/03 03:23:41;;;;;;;2.30;1.90;;;;;;;13.33;100.00;99277.31;5050590;28;20212;-78
2022/06/03 03:26:22;;;;;;;2.30;1.87;;;;;;;13.36;100.00;99271.75;5074161;28;20225;-78
2022/06/03 03:29:15;;;;;;;2.67;1.87;;;;;;;13.33;100.00;99266.66;5049072;28;20200;-78
2022/06/03 03:32:07;;;;;;;2.23;1.60;;;;;;;13.17;100.00;99266.88;5045933;28;20302;-78
2022/06/03 03:35:09;;;;;;;1.77;1.63;;;;;;;13.35;100.00;99271.88;5050499;28;20200;-78
2022/06/03 03:38:13;;;;;;;2.00;1.70;;;;;;;13.34;100.00;99272.81;5060996;28;20677;-78
2022/06/03 03:41:02;;;;;;;2.07;1.80;;;;;;;13.06;100.00;99269.47;5050427;28;20220;-78
2022/06/03 03:43:51;;;;;;;2.33;1.77;;;;;;;13.09;100.00;99269.25;5049224;28;20470;-78
2022/06/03 03:46:56;;;;;;;2.40;1.70;;;;;;;13.02;100.00;99260.00;5045634;28;20284;-78
2022/06/03 03:49:59;;;;;;;2.10;1.77;;;;;;;13.13;100.00;99265.44;5047400;28;20242;-78
2022/06/03 03:53:08;;;;;;;2.50;1.80;;;;;;;13.32;100.00;99258.78;5066789;27;20193;-78
2022/06/03 03:56:01;;;;;;;2.33;2.10;;;;;;;13.31;100.00;99254.41;5051089;28;20193;-78
2022/06/03 03:58:53;;;;;;;2.30;2.10;;;;;;;13.11;100.00;99248.72;5051201;28;20201;-77
2022/06/03 04:02:06;;;;;;;1.97;1.77;;;;;;;13.20;100.00;99251.69;5053728;28;20217;-79
2022/06/03 04:05:06;;;;;;;1.97;1.87;;;;;;;13.13;100.00;99251.28;5059314;27;20197;-81
2022/06/03 04:08:25;;;;;;;2.40;2.00;;;;;;;13.34;100.00;99236.44;5057392;27;20810;-77
2022/06/03 04:11:32;;;;;;;2.17;1.50;;;;;;;13.29;100.00;99245.69;5046345;28;20197;-78
2022/06/03 04:14:35;;;;;;;2.20;1.90;;;;;;;13.39;100.00;99249.38;5065426;28;20200;-78
2022/06/03 04:17:27;;;;;;;2.67;1.73;;;;;;;13.39;100.00;99244.06;5050923;28;20197;-79
2022/06/03 04:20:49;;;;;;;1.70;1.60;;;;;;;13.32;100.00;99241.03;5049492;28;20225;-78
2022/06/03 04:23:50;;;;;;;3.37;1.80;;;;;;;13.35;100.00;99240.78;5084121;28;20286;-78
2022/06/03 04:26:51;;;;;;;2.53;1.90;;;;;;;13.37;100.00;99232.69;5073869;28;20203;-78
2022/06/03 04:29:58;;;;;;;4.43;2.17;;;;;;;13.51;100.00;99231.66;5051588;28;20208;-78
2022/06/03 04:33:10;;;;;;;2.97;2.00;;;;;;;13.51;100.00;99223.66;5024899;28;20331;-78
2022/06/03 04:36:10;;;;;;;4.00;1.90;;;;;;;13.63;100.00;99226.28;5068877;28;20197;-78
2022/06/03 04:39:24;;;;;;;2.60;1.80;;;;;;;13.51;100.00;99221.88;5049601;28;20208;-78
2022/06/03 04:42:50;;;;;;;2.00;1.90;;;;;;;13.66;100.00;99223.38;5049554;28;20185;-78
2022/06/03 04:45:50;;;;;;;3.03;1.90;;;;;;;13.88;100.00;99216.41;5044072;28;20197;-78
2022/06/03 04:49:11;;;;;;;3.57;1.90;;;;;;;13.87;100.00;99218.22;5049470;28;20199;-77
2022/06/03 04:52:20;;;;;;;3.77;1.70;;;;;;;14.12;100.00;99213.69;5049394;28;20197;-77
2022/06/03 04:55:38;;;;;;;1.80;1.70;;;;;;;14.13;100.00;99220.69;5048023;28;20238;-77
2022/06/03 04:58:39;;;;;;;2.83;1.90;;;;;;;14.09;100.00;99229.88;5045333;28;20301;-77
2022/06/03 05:01:40;;;;;;;2.07;1.70;;;;;;;14.22;100.00;99220.81;5045936;27;20227;-77
2022/06/03 05:04:46;;;;;;;2.33;1.80;;;;;;;14.26;100.00;99216.94;5029689;28;20196;-80
2022/06/03 05:08:14;;;;;;;2.60;1.80;;;;;;;14.35;100.00;99217.19;5066607;28;20284;-77
2022/06/03 05:11:39;;;;;;;1.70;1.60;;;;;;;14.22;100.00;99210.16;5049397;28;20211;-77
2022/06/03 05:14:54;;;;;;;3.83;1.73;;;;;;;14.24;100.00;99202.06;5047978;28;20201;-79
2022/06/03 05:17:52;;;;;;;2.47;2.00;;;;;;;14.38;100.00;99204.50;5037159;28;20204;-77
2022/06/03 05:21:02;;;;;;;1.90;1.80;;;;;;;14.30;100.00;99198.91;5052173;28;20224;-77
2022/06/03 05:23:56;;;;;;;3.13;1.70;;;;;;;14.51;100.00;99201.72;5052468;28;20197;-80
2022/06/03 05:26:50;;;;;;;3.10;1.80;;;;;;;14.74;100.00;99200.72;5069334;27;20201;-77
2022/06/03 05:29:39;;;;;;;3.53;1.70;;;;;;;14.76;100.00;99195.25;5056500;28;20201;-80
2022/06/03 05:32:33;;;;;;;2.00;1.63;;;;;;;14.72;100.00;99191.16;5051306;28;20303;-78
2022/06/03 05:35:24;;;;;;;3.67;1.70;;;;;;;14.79;100.00;99201.22;5049732;28;20201;-77
2022/06/03 05:38:12;;;;;;;4.63;1.90;;;;;;;14.72;100.00;99196.50;5061074;27;20216;-77
2022/06/03 05:40:57;;;;;;;1.90;1.80;;;;;;;14.85;100.00;99200.69;5052098;28;20220;-77
2022/06/03 05:43:52;;;;;;;1.90;1.70;;;;;;;14.95;100.00;99189.28;5051131;28;20285;-77
2022/06/03 05:46:34;;;;;;;2.27;1.73;;;;;;;15.11;100.00;99185.25;5053326;28;20204;-77
2022/06/03 05:49:17;;;;;;;3.10;1.70;;;;;;;15.03;100.00;99185.03;5051649;28;20214;-77
2022/06/03 05:52:04;;;;;;;3.70;1.80;;;;;;;15.23;100.00;99187.88;5052280;28;20193;-78
2022/06/03 05:55:00;;;;;;;2.00;1.70;;;;;;;15.41;100.00;99189.03;5048476;28;20280;-77
2022/06/03 05:57:38;;;;;;;3.53;1.80;;;;;;;15.59;100.00;99176.81;5051853;28;20711;-78
2022/06/03 06:00:44;;;;;;;2.97;1.80;;;;;;;15.41;100.00;99176.53;5062662;27;20217;-77
2022/06/03 06:03:33;;;;;;;2.40;1.73;;;;;;;15.53;100.00;99179.13;5052038;28;20235;-77
2022/06/03 06:06:19;;;;;;;3.07;1.60;;;;;;;15.63;100.00;99178.28;5046739;28;20236;-77
2022/06/03 06:08:54;;;;;;;3.83;1.50;;;;;;;15.79;100.00;99172.47;5033541;28;20194;-78
2022/06/03 06:11:33;;;;;;;2.03;1.70;;;;;;;15.97;100.00;99184.25;5051451;28;20197;-80
2022/06/03 06:14:28;;;;;;;1.87;1.60;;;;;;;15.85;100.00;99187.13;5050178;28;20276;-79
2022/06/03 06:17:00;;;;;;;4.43;2.10;;;;;;;15.91;100.00;99173.25;5051632;28;20671;-79
2022/06/03 06:19:43;;;;;;;3.67;1.70;;;;;;;16.21;100.00;99175.97;5068479;27;20193;-79
2022/06/03 06:22:28;;;;;;;3.13;1.70;;;;;;;16.31;100.00;99173.34;5051422;28;20201;-79
2022/06/03 06:25:03;;;;;;;2.97;1.70;;;;;;;16.40;100.00;99177.84;5051427;28;20262;-79
2022/06/03 06:27:54;;;;;;;2.70;1.60;;;;;;;16.56;100.00;99172.84;5051273;28;20224;-79
2022/06/03 06:30:47;;;;;;;2.67;1.80;;;;;;;16.76;100.00;99163.09;5050146;28;20196;-79
2022/06/03 06:33:31;;;;;;;1.80;1.60;;;;;;;16.90;100.00;99175.22;5046319;28;20236;-79
2022/06/03 06:36:25;;;;;;;1.97;1.50;;;;;;;17.11;100.00;99161.75;5051349;28;20194;-79
2022/06/03 06:39:09;;;;;;;2.37;1.60;;;;;;;17.05;100.00;99162.28;5055984;27;20196;-79
2022/06/03 06:41:48;;;;;;;1.93;1.57;;;;;;;17.09;100.00;99177.09;5051517;28;20220;-79
2022/06/03 06:44:32;;;;;;;3.23;1.80;;;;;;;17.25;100.00;99173.84;5050127;28;20193;-79
2022/06/03 06:47:14;;;;;;;2.60;1.60;;;;;;;17.36;100.00;99163.84;5051390;28;20246;-80
2022/06/03 06:49:52;;;;;;;3.27;1.70;;;;;;;17.25;100.00;99168.50;5049334;28;20315;-79
2022/06/03 06:52:41;;;;;;;1.83;1.70;;;;;;;17.31;100.00;99178.66;5050999;28;20200;-80
2022/06/03 06:55:16;;;;;;;1.60;1.50;;;;;;;17.48;100.00;99172.59;5051096;28;20212;-79
2022/06/03 06:57:47;;;;;;;2.80;1.63;;;;;;;17.46;100.00;99170.03;5047086;28;20223;-79
2022/06/03 07:00:21;;;;;;;2.17;1.60;;;;;;;17.63;100.00;99173.00;5050154;28;20193;-79
2022/06/03 07:02:56;;;;;;;1.50;1.40;;;;;;;17.74;100.00;99162.16;5051233;28;20199;-79
2022/06/03 07:05:33;;;;;;;3.53;1.90;;;;;;;17.89;100.00;99171.44;5048178;28;20203;-79
2022/06/03 07:08:09;;;;;;;2.90;1.50;;;;;;;17.88;100.00;99158.19;5051066;28;20778;-79
2022/06/03 07:10:46;;;;;;;2.23;1.90;;;;;;;18.00;100.00;99157.88;5042227;28;20201;-79
2022/06/03 07:13:22;;;;;;;2.23;1.57;;;;;;;18.06;100.00;99167.19;5056057;27;20204;-79
2022/06/03 07:16:02;;;;;;;4.20;1.50;;;;;;;18.35;100.00;99163.56;5028881;28;20679;-78
2022/06/03 07:21:38;;;;;;;1.47;1.37;;;;;;;18.66;100.00;99161.47;5050905;28;20276;-79
2022/06/03 07:24:14;;;;;;;1.90;1.50;;;;;;;18.69;100.00;99161.16;5051037;28;20193;-79
2022/06/03 07:26:47;;;;;;;2.07;1.60;;;;;;;18.72;100.00;99172.44;5050898;28;20377;-80
2022/06/03 07:29:21;;;;;;;1.83;1.47;;;;;;;18.80;100.00;99161.78;5049063;28;20201;-79
2022/06/03 07:31:59;;;;;;;1.57;1.30;;;;;;;18.83;100.00;99163.34;5050705;28;20228;-79
2022/06/03 07:34:32;;;;;;;2.40;1.60;;;;;;;19.04;100.00;99168.44;5056845;27;20205;-80
2022/06/03 07:37:05;;;;;;;2.03;1.40;;;;;;;19.20;100.00;99165.06;5049634;28;20192;-79
2022/06/03 07:39:49;;;;;;;1.80;1.50;;;;;;;19.10;100.00;99157.91;5050555;28;20206;-79
2022/06/03 07:42:25;;;;;;;3.63;1.60;;;;;;;19.27;100.00;99150.03;5050804;28;20248;-79
2022/06/03 07:45:36;;;;;;;2.60;1.23;;;;;;;19.41;100.00;99150.34;5050009;28;20253;-79
2022/06/03 07:48:06;;;;;;;3.70;1.60;;;;;;;19.79;100.00;99144.78;5039399;28;20228;-79
2022/06/03 07:50:43;;;;;;;3.20;1.57;;;;;;;19.66;100.00;99140.66;5050369;28;20193;-79
2022/06/03 07:53:17;;;;;;;1.93;1.30;;;;;;;19.72;100.00;99140.03;5050450;28;20193;-79
2022/06/03 07:55:53;;;;;;;1.40;1.30;;;;;;;20.02;100.00;99146.78;5042905;28;20208;-79
2022/06/03 07:58:24;;;;;;;3.03;1.53;;;;;;;20.00;100.00;99142.59;5048834;28;20201;-79
2022/06/03 08:00:53;;;;;;;4.23;1.60;;;;;;;20.21;100.00;99140.34;5049958;28;20221;-79
2022/06/03 08:03:24;;;;;;;2.00;1.60;;;;;;;20.25;99.36;99133.63;5050211;28;20197;-79
2022/06/03 08:05:57;;;;;;;5.83;1.67;;;;;;;20.60;98.38;99128.28;5048806;28;20277;-80
2022/06/03 08:11:24;;;;;;;3.13;1.67;;;;;;;20.63;92.16;99117.16;5050090;28;20193;-79
2022/06/03 08:13:54;;;;;;;2.27;1.40;;;;;;;20.99;90.82;99123.16;5048511;28;20209;-80
2022/06/03 08:16:27;;;;;;;2.20;1.37;;;;;;;20.89;91.93;99114.38;5049854;28;20197;-80
2022/06/03 08:18:59;;;;;;;1.87;1.50;;;;;;;20.69;92.76;99108.44;5050052;28;20201;-79
2022/06/03 08:21:35;;;;;;;6.10;1.50;;;;;;;20.99;91.15;99112.38;5046874;28;20221;-80
2022/06/03 08:24:08;;;;;;;1.60;1.50;;;;;;;21.03;90.67;99109.19;5045615;28;20280;-79
2022/06/03 08:26:39;;;;;;;2.30;1.42;;;;;;;20.95;94.05;99098.44;5049653;28;20196;-80
2022/06/03 08:29:15;;;;;;;1.93;1.30;;;;;;;21.35;91.00;99104.88;5041173;28;20271;-79
2022/06/03 08:31:44;;;;;;;2.20;1.33;;;;;;;21.49;86.99;99101.50;5049130;28;20251;-79
2022/06/03 08:34:20;;;;;;;3.13;1.88;;;;;;;21.58;85.67;99111.28;5045189;28;20205;-79
2022/06/03 08:36:53;;;;;;;2.15;1.58;;;;;;;21.81;84.98;99108.72;5049986;28;20283;-79
2022/06/03 08:39:25;;;;;;;3.97;1.40;;;;;;;21.64;83.13;99109.75;5053226;27;20212;-79
2022/06/03 08:42:04;;;;;;;1.48;1.27;;;;;;;21.85;82.28;99101.97;5049699;28;20224;-79
2022/06/03 08:44:58;;;;;;;2.85;1.45;;;;;;;22.12;83.70;99099.91;5048148;28;20208;-80
2022/06/03 08:47:36;;;;;;;3.33;1.60;;;;;;;22.50;81.56;99099.09;5051622;27;20197;-79
2022/06/03 08:50:07;;;;;;;1.48;1.38;;;;;;;22.18;84.18;99091.13;5050337;28;20207;-79
2022/06/03 08:52:48;;;;;;;2.05;1.50;;;;;;;22.45;80.02;99095.22;5052177;28;20193;-79
2022/06/03 08:55:34;;;;;;;3.05;1.60;;;;;;;22.43;79.50;99097.28;5050559;28;20212;-80
2022/06/03 08:58:10;;;;;;;1.50;1.40;;;;;;;22.62;76.37;99090.59;5051709;28;20197;-80
2022/06/03 09:01:03;;;;;;;2.70;1.50;;;;;;;22.61;76.32;99103.25;5052733;28;20204;-79
2022/06/03 09:03:43;;;;;;;3.10;1.55;;;;;;;22.75;79.14;99102.50;5047116;28;20249;-80
2022/06/03 09:06:16;;;;;;;3.55;1.30;;;;;;;22.86;78.95;99087.78;5052826;28;20189;-79
2022/06/03 09:08:52;;;;;;;1.73;1.60;;;;;;;23.19;78.48;99080.28;5052979;28;20201;-79
2022/06/03 09:11:28;;;;;;;1.70;1.60;;;;;;;23.57;73.36;99075.75;5053000;28;20193;-80
2022/06/03 09:14:03;;;;;;;2.50;1.50;;;;;;;23.33;72.88;99079.50;5048031;28;20208;-79
2022/06/03 09:16:33;;;;;;;2.45;1.58;;;;;;;23.23;74.33;99070.78;5052436;28;20197;-78
2022/06/03 09:19:09;;;;;;;2.28;1.30;;;;;;;23.62;73.11;99069.81;5049255;28;20213;-78
2022/06/03 09:21:41;;;;;;;2.17;1.63;;;;;;;23.69;77.72;99068.06;5065046;27;20216;-78
2022/06/03 09:24:16;;;;;;;2.22;1.50;;;;;;;23.83;75.07;99056.41;5085181;27;20197;-78
2022/06/03 09:26:47;;;;;;;2.13;1.30;;;;;;;24.01;77.92;99057.91;5067585;27;20201;-78
2022/06/03 09:29:18;;;;;;;3.70;1.40;;;;;;;24.06;75.04;99058.19;5051476;28;20269;-79
2022/06/03 09:31:51;;;;;;;2.33;1.30;;;;;;;24.25;75.36;99058.47;5052088;28;20718;-79
2022/06/03 09:34:25;;;;;;;1.42;1.33;;;;;;;24.54;73.88;99062.19;5052495;28;20193;-79
2022/06/03 09:36:55;;;;;;;2.25;1.40;;;;;;;24.55;72.55;99062.00;5052320;28;20197;-78
2022/06/03 09:39:46;;;;;;;2.40;1.83;;;;;;;24.75;70.71;99064.09;5050655;28;20280;-79
2022/06/03 09:42:14;;;;;;;2.17;1.63;;;;;;;24.74;69.89;99051.56;5052341;28;20221;-79
2022/06/03 09:44:45;;;;;;;1.90;1.42;;;;;;;24.41;71.07;99043.03;5050781;28;20211;-78
2022/06/03 09:47:18;;;;;;;2.05;1.48;;;;;;;24.06;75.49;99050.06;5052280;28;20196;-79
2022/06/03 09:49:48;;;;;;;2.63;1.70;;;;;;;24.37;78.37;99044.47;5052182;28;20205;-79
2022/06/03 09:52:20;;;;;;;3.53;1.70;;;;;;;24.59;76.51;99029.94;5052274;28;20193;-78
2022/06/03 09:54:51;;;;;;;2.97;1.70;;;;;;;24.62;76.83;99031.44;5052251;28;20260;-78
2022/06/03 09:57:22;;;;;;;1.83;1.50;;;;;;;24.83;76.49;99026.88;5049815;28;20208;-79
2022/06/03 09:59:57;;;;;;;2.33;1.50;;;;;;;24.87;77.08;99024.59;5050206;28;20707;-79
2022/06/03 10:02:26;;;;;;;1.70;1.60;;;;;;;25.45;68.75;99032.66;5049767;28;20274;-79
2022/06/03 10:04:55;;;;;;;2.00;1.52;;;;;;;24.74;70.97;99025.31;5052148;28;20208;-79
2022/06/03 10:07:26;;;;;;;1.92;1.50;;;;;;;25.24;70.94;99020.81;5051763;28;20201;-79
2022/06/03 10:12:49;;;;;;;1.77;1.60;;;;;;;26.01;65.83;99022.63;5069001;28;20198;-79
2022/06/03 10:15:40;;;;;;;3.50;1.77;;;;;;;26.02;64.50;99031.63;5050256;28;20193;-79
2022/06/03 10:18:28;;;;;;;3.00;1.75;;;;;;;26.12;66.93;99027.50;5049570;28;20208;-79
2022/06/03 10:21:38;;;;;;;3.40;1.73;;;;;;;26.29;65.28;99029.88;5052009;28;20197;-79
2022/06/03 10:24:07;;;;;;;2.00;1.70;;;;;;;26.57;63.45;99036.06;5051790;28;20216;-79
2022/06/03 10:26:46;;;;;;;2.53;1.80;;;;;;;26.78;63.80;99035.91;5047760;28;20217;-79
2022/06/03 10:29:17;;;;;;;2.40;1.85;;;;;;;27.14;62.30;99040.22;5050401;28;20201;-80
2022/06/03 10:31:51;;;;;;;1.90;1.80;;;;;;;27.26;61.74;99032.25;5051593;28;20308;-79
2022/06/03 10:34:34;;;;;;;3.88;1.73;;;;;;;27.15;62.35;99022.84;5058241;27;20205;-79
2022/06/03 10:37:07;;;;;;;2.42;1.60;;;;;;;27.26;61.82;99021.38;5057651;27;20208;-79
2022/06/03 10:39:35;;;;;;;1.75;1.55;;;;;;;27.69;60.55;99016.34;5051597;28;20197;-79
2022/06/03 10:42:04;;;;;;;2.72;1.95;;;;;;;27.62;63.32;99012.78;5052625;28;20201;-80
2022/06/03 10:44:36;;;;;;;3.28;1.80;;;;;;;27.63;62.87;99019.91;5049027;28;20196;-79
2022/06/03 10:47:14;;;;;;;3.35;1.83;;;;;;;28.29;58.24;99010.78;5051388;28;20197;-79
2022/06/03 10:49:52;;;;;;;2.22;2.03;;;;;;;28.04;57.42;99024.22;5050847;28;20201;-80
2022/06/03 11:01:08;;;;;;;3.47;2.08;;;;;;;28.25;60.48;98988.53;5051158;28;20197;-79
2022/06/03 11:03:42;;;;;;;2.58;1.70;;;;;;;28.43;59.40;98985.97;5051084;28;20213;-79
2022/06/03 11:06:15;;;;;;;2.00;1.80;;;;;;;28.19;60.07;98983.97;5055840;27;20197;-80
2022/06/03 11:08:51;;;;;;;4.80;1.73;;;;;;;28.50;56.98;98970.41;5058821;28;20197;-80
2022/06/03 11:11:37;;;;;;;3.13;1.83;;;;;;;27.92;60.06;98978.59;5050729;28;20189;-79
2022/06/03 11:14:35;;;;;;;2.15;1.95;;;;;;;28.39;58.57;98981.19;5049322;28;20235;-80
2022/06/03 11:17:18;;;;;;;2.75;1.73;;;;;;;28.09;60.86;98978.13;5049523;28;20208;-79
2022/06/03 11:19:48;;;;;;;1.98;1.77;;;;;;;28.44;60.56;98975.88;5051000;28;20208;-80
2022/06/03 11:22:30;;;;;;;2.08;1.65;;;;;;;27.90;62.25;98961.66;5050324;28;20297;-79
2022/06/03 11:25:12;;;;;;;2.08;1.80;;;;;;;27.81;66.15;98957.50;5051128;28;20204;-79
2022/06/03 11:27:49;;;;;;;3.53;1.90;;;;;;;27.82;68.39;98947.44;5050866;28;20197;-79
2022/06/03 11:30:35;;;;;;;3.13;1.80;;;;;;;27.65;67.16;98947.88;5044437;28;20200;-79
2022/06/03 11:33:08;;;;;;;3.80;2.00;;;;;;;27.28;68.47;98954.00;5050603;28;20312;-79
2022/06/03 11:35:41;;;;;;;2.15;1.90;;;;;;;27.04;72.22;98937.28;5050771;28;20277;-80
2022/06/03 11:38:14;;;;;;;2.95;2.00;;;;;;;27.18;73.59;98943.53;5050715;28;20651;-79
2022/06/03 11:40:52;;;;;;;2.42;2.22;;;;;;;27.80;70.50;98944.09;5055150;27;20189;-79
2022/06/03 11:43:28;;;;;;;3.83;2.00;;;;;;;27.59;71.96;98939.69;5049093;28;20216;-80
2022/06/03 11:46:20;;;;;;;2.38;1.90;;;;;;;28.07;66.17;98936.63;5050652;28;20250;-80
2022/06/03 11:48:51;;;;;;;2.42;1.75;;;;;;;28.23;63.07;98927.97;5050262;28;20289;-80
2022/06/03 11:51:20;;;;;;;2.65;1.90;;;;;;;28.02;64.54;98931.03;5050355;28;20253;-80
2022/06/03 11:53:50;;;;;;;2.97;1.80;;;;;;;28.23;64.95;98922.53;5060081;27;20197;-80
2022/06/03 11:56:24;;;;;;;4.25;2.10;;;;;;;28.18;64.82;98923.19;5050189;28;20235;-80
2022/06/03 11:59:01;;;;;;;3.35;2.08;;;;;;;28.11;64.90;98907.94;5048826;28;20588;-80
2022/06/03 12:01:41;;;;;;;2.10;1.90;;;;;;;28.59;63.55;98904.75;5050784;28;20200;-80
2022/06/03 12:04:33;;;;;;;4.00;2.05;;;;;;;28.11;65.46;98905.22;5051386;28;20228;-79
2022/06/03 12:07:21;;;;;;;2.20;2.00;;;;;;;28.09;65.48;98910.88;5048266;28;20198;-80
2022/06/03 12:09:57;;;;;;;2.38;2.00;;;;;;;28.09;65.89;98913.59;5050123;28;20235;-79
2022/06/03 12:15:38;;;;;;;2.88;1.85;;;;;;;29.13;62.85;98903.25;5050243;28;20300;-79
2022/06/03 12:18:51;;;;;;;3.00;2.30;;;;;;;28.68;63.37;98906.97;5049634;28;20197;-80
2022/06/03 12:21:49;;;;;;;2.35;2.15;;;;;;;29.24;60.99;98916.16;5073397;28;20201;-79
2022/06/03 12:24:42;;;;;;;2.17;1.98;;;;;;;29.28;60.67;98912.78;5049558;28;20213;-79
2022/06/03 12:27:24;;;;;;;3.40;2.10;;;;;;;29.45;59.92;98907.56;5025229;28;20212;-80
2022/06/03 12:30:22;;;;;;;2.67;1.95;;;;;;;29.19;60.48;98918.75;5062315;28;20201;-80
2022/06/03 12:32:56;;;;;;;2.92;2.28;;;;;;;28.80;65.31;98915.28;5025654;28;20230;-80
2022/06/03 12:36:06;;;;;;;3.10;1.75;;;;;;;29.53;61.99;98914.63;5066907;27;20205;-80
2022/06/03 12:38:53;;;;;;;2.60;2.38;;;;;;;29.43;61.20;98909.66;4980032;28;20258;-80
2022/06/03 12:42:03;;;;;;;4.68;3.67;;;;;;;29.78;62.40;98901.75;4955013;28;20319;-79
2022/06/03 12:44:44;;;;;;;3.65;2.60;;;;;;;29.37;63.18;98910.59;5052389;28;20311;-79
2022/06/03 12:47:45;;;;;;;2.70;2.20;;;;;;;29.61;61.75;98904.25;5084614;28;20195;-79
2022/06/03 12:50:38;;;;;;;2.55;2.00;;;;;;;30.15;59.87;98901.75;5066184;28;20195;-79
2022/06/03 12:53:41;;;;;;;2.47;2.13;;;;;;;29.55;60.85;98894.25;4924330;28;20224;-79
2022/06/03 12:56:20;;;;;;;2.50;2.20;;;;;;;29.57;63.50;98899.50;4870867;29;20652;-79
2022/06/03 12:58:58;;;;;;;3.03;2.30;;;;;;;29.97;60.72;98893.53;4929776;29;20201;-79
2022/06/03 13:01:47;;;;;;;3.17;2.50;;;;;;;30.22;59.24;98888.00;4966589;28;20195;-80
2022/06/03 13:05:01;;;;;;;5.15;2.17;;;;;;;29.67;63.88;98893.50;4982888;28;20218;-79
2022/06/03 13:07:39;;;;;;;2.88;2.30;;;;;;;29.69;63.84;98889.47;4986915;28;20195;-79
2022/06/03 13:10:29;;;;;;;2.45;2.05;;;;;;;29.31;65.77;98884.19;4990570;28;20199;-80
2022/06/03 13:13:23;;;;;;;3.05;2.50;;;;;;;29.73;62.17;98887.97;4987282;28;20658;-79
2022/06/03 13:15:53;;;;;;;3.83;3.03;;;;;;;28.81;67.10;98886.94;4996707;28;20195;-79
2022/06/03 13:18:40;;;;;;;2.55;2.22;;;;;;;28.42;67.96;98890.81;5032821;28;20197;-79
2022/06/03 13:21:24;;;;;;;3.55;3.22;;;;;;;28.68;68.55;98898.81;5046128;28;20206;-80
2022/06/03 13:24:24;;;;;;;2.75;2.55;;;;;;;29.16;68.88;98894.66;5048571;28;20227;-79